sensor_id;sensor_type;location;lat;lon;timestamp;pressure;altitude;pressure_sealevel;temperature;humidity
69306;BME280;56427;51.580;4.656;2023-08-06T00:00:18;100364.38;;;14.83;100.00
69306;BME280;56427;51.580;4.656;2023-08-06T00:02:44;100358.69;;;14.79;100.00
69306;BME280;56427;51.580;4.656;2023-08-06T00:05:10;100356.06;;;14.79;100.00
69306;BME280;56427;51.580;4.656;2023-08-06T00:07:36;100356.22;;;14.78;100.00
69306;BME280;56427;51.580;4.656;2023-08-06T00:10:01;100359.19;;;14.66;100.00
69306;BME280;56427;51.580;4.656;2023-08-06T00:12:27;100354.28;;;14.71;100.00
69306;BME280;56427;51.580;4.656;2023-08-06T00:14:54;100365.38;;;14.65;100.00
69306;BME280;56427;51.580;4.656;2023-08-06T00:17:19;100368.34;;;14.70;100.00
69306;BME280;56427;51.580;4.656;2023-08-06T00:19:45;100363.28;;;14.61;100.00
69306;BME280;56427;51.580;4.656;2023-08-06T00:22:10;100360.50;;;14.54;100.00
69306;BME280;56427;51.580;4.656;2023-08-06T00:24:36;100354.09;;;14.57;100.00
69306;BME280;56427;51.580;4.656;2023-08-06T00:27:02;100352.50;;;14.47;100.00
69306;BME280;56427;51.580;4.656;2023-08-06T00:29:27;100355.59;;;14.51;100.00
69306;BME280;56427;51.580;4.656;2023-08-06T00:31:53;100359.03;;;14.43;100.00
69306;BME280;56427;51.580;4.656;2023-08-06T00:34:18;100359.66;;;14.45;100.00
69306;BME280;56427;51.580;4.656;2023-08-06T00:36:45;100355.75;;;14.58;100.00
69306;BME280;56427;51.580;4.656;2023-08-06T00:39:10;100349.53;;;14.50;100.00
69306;BME280;56427;51.580;4.656;2023-08-06T00:41:36;100352.31;;;14.49;100.00
69306;BME280;56427;51.580;4.656;2023-08-06T00:44:01;100357.91;;;14.62;100.00
69306;BME280;56427;51.580;4.656;2023-08-06T00:46:27;100351.66;;;14.55;100.00
69306;BME280;56427;51.580;4.656;2023-08-06T00:48:52;100349.22;;;14.62;100.00
69306;BME280;56427;51.580;4.656;2023-08-06T00:51:19;100358.53;;;14.64;100.00
69306;BME280;56427;51.580;4.656;2023-08-06T00:53:44;100344.47;;;14.65;100.00
69306;BME280;56427;51.580;4.656;2023-08-06T00:56:10;100349.53;;;14.67;100.00
69306;BME280;56427;51.580;4.656;2023-08-06T00:58:37;100350.84;;;14.71;100.00
69306;BME280;56427;51.580;4.656;2023-08-06T01:01:04;100344.00;;;14.62;100.00
69306;BME280;56427;51.580;4.656;2023-08-06T01:03:30;100350.88;;;14.63;100.00
69306;BME280;56427;51.580;4.656;2023-08-06T01:05:55;100353.47;;;14.71;100.00
69306;BME280;56427;51.580;4.656;2023-08-06T01:08:35;100342.38;;;14.69;100.00
69306;BME280;56427;51.580;4.656;2023-08-06T01:11:33;100358.66;;;14.87;100.00
69306;BME280;56427;51.580;4.656;2023-08-06T01:16:38;100351.28;;;14.91;100.00
69306;BME280;56427;51.580;4.656;2023-08-06T01:19:16;100351.47;;;14.81;100.00
69306;BME280;56427;51.580;4.656;2023-08-06T01:21:42;100351.47;;;14.81;100.00
69306;BME280;56427;51.580;4.656;2023-08-06T01:24:08;100353.31;;;14.72;100.00
69306;BME280;56427;51.580;4.656;2023-08-06T01:26:56;100352.50;;;14.72;100.00
69306;BME280;56427;51.580;4.656;2023-08-06T01:29:35;100356.06;;;14.79;100.00
69306;BME280;56427;51.580;4.656;2023-08-06T01:32:03;100354.75;;;14.75;100.00
69306;BME280;56427;51.580;4.656;2023-08-06T01:34:31;100356.56;;;14.75;100.00
69306;BME280;56427;51.580;4.656;2023-08-06T01:36:59;100363.25;;;14.85;100.00
69306;BME280;56427;51.580;4.656;2023-08-06T01:39:25;100360.13;;;14.73;100.00
69306;BME280;56427;51.580;4.656;2023-08-06T01:41:50;100358.38;;;14.66;100.00
69306;BME280;56427;51.580;4.656;2023-08-06T01:44:16;100361.31;;;14.63;100.00
69306;BME280;56427;51.580;4.656;2023-08-06T01:46:42;100365.72;;;14.62;100.00
69306;BME280;56427;51.580;4.656;2023-08-06T01:49:07;100360.97;;;14.58;100.00
69306;BME280;56427;51.580;4.656;2023-08-06T01:51:33;100368.34;;;14.62;100.00
69306;BME280;56427;51.580;4.656;2023-08-06T01:53:59;100370.09;;;14.53;100.00
69306;BME280;56427;51.580;4.656;2023-08-06T01:56:24;100359.97;;;14.59;100.00
69306;BME280;56427;51.580;4.656;2023-08-06T01:58:49;100370.28;;;14.60;100.00
69306;BME280;56427;51.580;4.656;2023-08-06T02:01:15;100363.44;;;14.51;100.00
69306;BME280;56427;51.580;4.656;2023-08-06T02:03:40;100374.03;;;14.49;100.00
69306;BME280;56427;51.580;4.656;2023-08-06T02:06:07;100373.88;;;14.43;100.00
69306;BME280;56427;51.580;4.656;2023-08-06T02:08:32;100383.47;;;14.42;100.00
69306;BME280;56427;51.580;4.656;2023-08-06T02:10:59;100374.53;;;14.36;100.00
69306;BME280;56427;51.580;4.656;2023-08-06T02:13:25;100369.63;;;14.42;100.00
69306;BME280;56427;51.580;4.656;2023-08-06T02:15:50;100381.53;;;14.52;100.00
69306;BME280;56427;51.580;4.656;2023-08-06T02:18:17;100379.59;;;14.46;100.00
69306;BME280;56427;51.580;4.656;2023-08-06T02:20:43;100382.84;;;14.48;100.00
69306;BME280;56427;51.580;4.656;2023-08-06T02:23:10;100389.22;;;14.54;100.00
69306;BME280;56427;51.580;4.656;2023-08-06T02:25:35;100383.16;;;14.45;100.00
69306;BME280;56427;51.580;4.656;2023-08-06T02:28:02;100387.41;;;14.46;100.00
69306;BME280;56427;51.580;4.656;2023-08-06T02:30:27;100386.59;;;14.54;100.00
69306;BME280;56427;51.580;4.656;2023-08-06T02:32:54;100391.47;;;14.57;100.00
69306;BME280;56427;51.580;4.656;2023-08-06T02:35:20;100395.09;;;14.56;100.00
69306;BME280;56427;51.580;4.656;2023-08-06T02:37:45;100392.78;;;14.53;100.00
69306;BME280;56427;51.580;4.656;2023-08-06T02:40:11;100396.53;;;14.50;100.00
69306;BME280;56427;51.580;4.656;2023-08-06T02:42:36;100396.06;;;14.47;100.00
69306;BME280;56427;51.580;4.656;2023-08-06T02:45:03;100402.91;;;14.56;100.00
69306;BME280;56427;51.580;4.656;2023-08-06T02:47:28;100402.28;;;14.62;100.00
69306;BME280;56427;51.580;4.656;2023-08-06T02:49:55;100398.81;;;14.53;100.00
69306;BME280;56427;51.580;4.656;2023-08-06T02:52:20;100402.63;;;14.59;100.00
69306;BME280;56427;51.580;4.656;2023-08-06T02:54:46;100402.13;;;14.47;100.00
69306;BME280;56427;51.580;4.656;2023-08-06T02:57:11;100396.88;;;14.56;100.00
69306;BME280;56427;51.580;4.656;2023-08-06T02:59:37;100406.03;;;14.60;100.00
69306;BME280;56427;51.580;4.656;2023-08-06T03:02:02;100390.53;;;14.66;100.00
69306;BME280;56427;51.580;4.656;2023-08-06T03:04:28;100392.00;;;14.77;100.00
69306;BME280;56427;51.580;4.656;2023-08-06T03:06:53;100395.41;;;14.69;100.00
69306;BME280;56427;51.580;4.656;2023-08-06T03:09:19;100393.28;;;14.73;100.00
69306;BME280;56427;51.580;4.656;2023-08-06T03:11:44;100398.03;;;14.78;100.00
69306;BME280;56427;51.580;4.656;2023-08-06T03:14:10;100396.69;;;14.90;100.00
69306;BME280;56427;51.580;4.656;2023-08-06T03:16:35;100399.13;;;14.91;100.00
69306;BME280;56427;51.580;4.656;2023-08-06T03:19:01;100400.31;;;14.81;100.00
69306;BME280;56427;51.580;4.656;2023-08-06T03:21:27;100395.56;;;14.76;100.00
69306;BME280;56427;51.580;4.656;2023-08-06T03:23:54;100398.97;;;14.93;100.00
69306;BME280;56427;51.580;4.656;2023-08-06T03:26:20;100405.03;;;14.94;100.00
69306;BME280;56427;51.580;4.656;2023-08-06T03:28:46;100404.06;;;14.78;100.00
69306;BME280;56427;51.580;4.656;2023-08-06T03:31:13;100397.53;;;14.74;100.00
69306;BME280;56427;51.580;4.656;2023-08-06T03:33:38;100405.38;;;14.82;100.00
69306;BME280;56427;51.580;4.656;2023-08-06T03:36:04;100410.25;;;14.94;100.00
69306;BME280;56427;51.580;4.656;2023-08-06T03:38:29;100409.28;;;14.78;100.00
69306;BME280;56427;51.580;4.656;2023-08-06T03:40:55;100417.44;;;14.83;100.00
69306;BME280;56427;51.580;4.656;2023-08-06T03:43:20;100417.09;;;14.86;100.00
69306;BME280;56427;51.580;4.656;2023-08-06T03:45:45;100414.97;;;14.90;100.00
69306;BME280;56427;51.580;4.656;2023-08-06T03:48:11;100416.44;;;14.93;100.00
69306;BME280;56427;51.580;4.656;2023-08-06T03:50:36;100415.97;;;14.81;100.00
69306;BME280;56427;51.580;4.656;2023-08-06T03:53:03;100418.25;;;14.84;100.00
69306;BME280;56427;51.580;4.656;2023-08-06T03:55:30;100422.66;;;14.75;100.00
69306;BME280;56427;51.580;4.656;2023-08-06T03:57:55;100423.66;;;14.82;100.00
69306;BME280;56427;51.580;4.656;2023-08-06T04:00:21;100418.91;;;14.78;100.00
69306;BME280;56427;51.580;4.656;2023-08-06T04:02:46;100423.97;;;14.79;100.00
69306;BME280;56427;51.580;4.656;2023-08-06T04:05:12;100425.44;;;14.82;100.00
69306;BME280;56427;51.580;4.656;2023-08-06T04:07:37;100426.91;;;14.76;100.00
69306;BME280;56427;51.580;4.656;2023-08-06T04:10:04;100427.88;;;14.83;100.00
69306;BME280;56427;51.580;4.656;2023-08-06T04:12:30;100434.75;;;14.68;100.00
69306;BME280;56427;51.580;4.656;2023-08-06T04:14:57;100437.69;;;14.65;100.00
69306;BME280;56427;51.580;4.656;2023-08-06T04:17:24;100436.72;;;14.66;100.00
69306;BME280;56427;51.580;4.656;2023-08-06T04:19:51;100435.72;;;14.67;100.00
69306;BME280;56427;51.580;4.656;2023-08-06T04:22:21;100432.16;;;14.68;100.00
69306;BME280;56427;51.580;4.656;2023-08-06T04:24:47;100441.91;;;14.58;100.00
69306;BME280;56427;51.580;4.656;2023-08-06T04:27:13;100452.06;;;14.61;100.00
69306;BME280;56427;51.580;4.656;2023-08-06T04:29:41;100457.25;;;14.44;100.00
69306;BME280;56427;51.580;4.656;2023-08-06T04:32:09;100471.09;;;14.28;100.00
69306;BME280;56427;51.580;4.656;2023-08-06T04:34:35;100470.28;;;14.20;100.00
69306;BME280;56427;51.580;4.656;2023-08-06T04:37:01;100482.34;;;14.21;100.00
69306;BME280;56427;51.580;4.656;2023-08-06T04:39:27;100483.16;;;14.21;100.00
69306;BME280;56427;51.580;4.656;2023-08-06T04:41:52;100477.44;;;14.17;100.00
69306;BME280;56427;51.580;4.656;2023-08-06T04:44:18;100493.09;;;14.26;100.00
69306;BME280;56427;51.580;4.656;2023-08-06T04:46:44;100492.94;;;14.19;100.00
69306;BME280;56427;51.580;4.656;2023-08-06T04:49:09;100482.81;;;14.16;100.00
69306;BME280;56427;51.580;4.656;2023-08-06T04:51:35;100498.13;;;14.11;100.00
69306;BME280;56427;51.580;4.656;2023-08-06T04:54:00;100507.25;;;14.07;100.00
69306;BME280;56427;51.580;4.656;2023-08-06T04:56:27;100510.31;;;13.94;100.00
69306;BME280;56427;51.580;4.656;2023-08-06T04:58:52;100516.53;;;14.01;100.00
69306;BME280;56427;51.580;4.656;2023-08-06T05:01:18;100520.09;;;13.92;100.00
69306;BME280;56427;51.580;4.656;2023-08-06T05:03:43;100527.44;;;13.88;100.00
69306;BME280;56427;51.580;4.656;2023-08-06T05:06:09;100525.00;;;13.95;100.00
69306;BME280;56427;51.580;4.656;2023-08-06T05:08:35;100539.38;;;14.07;100.00
69306;BME280;56427;51.580;4.656;2023-08-06T05:11:01;100543.59;;;14.00;100.00
69306;BME280;56427;51.580;4.656;2023-08-06T05:13:26;100537.84;;;13.88;100.00
69306;BME280;56427;51.580;4.656;2023-08-06T05:15:55;100549.28;;;13.95;100.00
69306;BME280;56427;51.580;4.656;2023-08-06T05:18:22;100556.78;;;13.90;100.00
69306;BME280;56427;51.580;4.656;2023-08-06T05:20:47;100567.06;;;13.92;100.00
69306;BME280;56427;51.580;4.656;2023-08-06T05:23:13;100562.59;;;13.84;100.00
69306;BME280;56427;51.580;4.656;2023-08-06T05:25:39;100578.38;;;13.74;100.00
69306;BME280;56427;51.580;4.656;2023-08-06T05:28:07;100575.31;;;13.79;100.00
69306;BME280;56427;51.580;4.656;2023-08-06T05:30:32;100575.41;;;13.69;100.00
69306;BME280;56427;51.580;4.656;2023-08-06T05:32:58;100589.84;;;13.82;100.00
69306;BME280;56427;51.580;4.656;2023-08-06T05:35:23;100589.66;;;13.83;100.00
69306;BME280;56427;51.580;4.656;2023-08-06T05:37:52;100593.06;;;13.75;100.00
69306;BME280;56427;51.580;4.656;2023-08-06T05:40:18;100589.00;;;13.81;100.00
69306;BME280;56427;51.580;4.656;2023-08-06T05:42:43;100610.38;;;13.85;100.00
69306;BME280;56427;51.580;4.656;2023-08-06T05:45:09;100604.44;;;13.74;100.00
69306;BME280;56427;51.580;4.656;2023-08-06T05:47:35;100611.16;;;13.77;100.00
69306;BME280;56427;51.580;4.656;2023-08-06T05:50:01;100619.50;;;13.80;100.00
69306;BME280;56427;51.580;4.656;2023-08-06T05:52:27;100621.63;;;13.85;100.00
69306;BME280;56427;51.580;4.656;2023-08-06T05:54:53;100622.94;;;13.89;100.00
69306;BME280;56427;51.580;4.656;2023-08-06T05:57:18;100628.00;;;13.91;100.00
69306;BME280;56427;51.580;4.656;2023-08-06T05:59:44;100634.22;;;13.90;100.00
69306;BME280;56427;51.580;4.656;2023-08-06T06:02:09;100644.03;;;13.96;100.00
69306;BME280;56427;51.580;4.656;2023-08-06T06:04:35;100637.69;;;13.98;100.00
69306;BME280;56427;51.580;4.656;2023-08-06T06:07:02;100649.44;;;14.03;100.00
69306;BME280;56427;51.580;4.656;2023-08-06T06:09:27;100647.94;;;13.92;100.00
69306;BME280;56427;51.580;4.656;2023-08-06T06:11:53;100648.63;;;14.02;100.00
69306;BME280;56427;51.580;4.656;2023-08-06T06:14:19;100657.13;;;14.04;100.00
69306;BME280;56427;51.580;4.656;2023-08-06T06:16:45;100654.81;;;14.01;100.00
69306;BME280;56427;51.580;4.656;2023-08-06T06:19:11;100662.38;;;14.12;100.00
69306;BME280;56427;51.580;4.656;2023-08-06T06:21:38;100673.28;;;14.08;100.00
69306;BME280;56427;51.580;4.656;2023-08-06T06:24:04;100671.97;;;14.04;100.00
69306;BME280;56427;51.580;4.656;2023-08-06T06:26:30;100680.91;;;14.01;100.00
69306;BME280;56427;51.580;4.656;2023-08-06T06:28:56;100675.69;;;14.01;100.00
69306;BME280;56427;51.580;4.656;2023-08-06T06:31:21;100689.66;;;13.92;100.00
69306;BME280;56427;51.580;4.656;2023-08-06T06:33:47;100685.47;;;13.99;100.00
69306;BME280;56427;51.580;4.656;2023-08-06T06:36:12;100697.25;;;14.03;100.00
69306;BME280;56427;51.580;4.656;2023-08-06T06:38:38;100701.28;;;13.97;100.00
69306;BME280;56427;51.580;4.656;2023-08-06T06:41:04;100702.75;;;14.00;100.00
69306;BME280;56427;51.580;4.656;2023-08-06T06:43:31;100703.31;;;13.86;100.00
69306;BME280;56427;51.580;4.656;2023-08-06T06:45:58;100708.59;;;13.94;100.00
69306;BME280;56427;51.580;4.656;2023-08-06T06:48:27;100716.88;;;13.89;100.00
69306;BME280;56427;51.580;4.656;2023-08-06T06:50:53;100711.44;;;13.83;100.00
69306;BME280;56427;51.580;4.656;2023-08-06T06:53:19;100717.38;;;13.93;100.00
69306;BME280;56427;51.580;4.656;2023-08-06T06:55:44;100720.47;;;13.88;100.00
69306;BME280;56427;51.580;4.656;2023-08-06T06:58:11;100721.41;;;13.87;100.00
69306;BME280;56427;51.580;4.656;2023-08-06T07:00:37;100721.41;;;13.87;100.00
69306;BME280;56427;51.580;4.656;2023-08-06T07:03:03;100731.19;;;13.85;100.00
69306;BME280;56427;51.580;4.656;2023-08-06T07:05:28;100724.84;;;13.88;100.00
69306;BME280;56427;51.580;4.656;2023-08-06T07:07:54;100728.28;;;13.88;100.00
69306;BME280;56427;51.580;4.656;2023-08-06T07:10:20;100740.50;;;13.88;100.00
69306;BME280;56427;51.580;4.656;2023-08-06T07:12:45;100738.16;;;14.03;100.00
69306;BME280;56427;51.580;4.656;2023-08-06T07:15:11;100740.72;;;13.94;100.00
69306;BME280;56427;51.580;4.656;2023-08-06T07:17:37;100737.72;;;13.89;100.00
69306;BME280;56427;51.580;4.656;2023-08-06T07:20:03;100741.34;;;13.88;100.00
69306;BME280;56427;51.580;4.656;2023-08-06T07:22:29;100739.09;;;13.93;100.00
69306;BME280;56427;51.580;4.656;2023-08-06T07:24:55;100735.28;;;14.14;100.00
69306;BME280;56427;51.580;4.656;2023-08-06T07:27:21;100745.22;;;14.10;100.00
69306;BME280;56427;51.580;4.656;2023-08-06T07:29:46;100744.97;;;14.22;100.00
69306;BME280;56427;51.580;4.656;2023-08-06T07:32:13;100746.94;;;14.20;100.00
69306;BME280;56427;51.580;4.656;2023-08-06T07:34:40;100739.47;;;14.25;100.00
69306;BME280;56427;51.580;4.656;2023-08-06T07:37:05;100752.50;;;14.25;100.00
69306;BME280;56427;51.580;4.656;2023-08-06T07:39:31;100760.91;;;14.36;100.00
69306;BME280;56427;51.580;4.656;2023-08-06T07:41:57;100753.38;;;14.33;100.00
69306;BME280;56427;51.580;4.656;2023-08-06T07:44:22;100756.44;;;14.29;100.00
69306;BME280;56427;51.580;4.656;2023-08-06T07:46:49;100754.75;;;14.46;100.00
69306;BME280;56427;51.580;4.656;2023-08-06T07:49:14;100755.69;;;14.63;100.00
69306;BME280;56427;51.580;4.656;2023-08-06T07:51:40;100765.28;;;14.88;100.00
69306;BME280;56427;51.580;4.656;2023-08-06T07:54:06;100755.47;;;14.90;100.00
69306;BME280;56427;51.580;4.656;2023-08-06T07:56:31;100745.53;;;15.02;100.00
69306;BME280;56427;51.580;4.656;2023-08-06T07:58:56;100747.16;;;14.95;100.00
69306;BME280;56427;51.580;4.656;2023-08-06T08:01:22;100751.78;;;15.18;100.00
69306;BME280;56427;51.580;4.656;2023-08-06T08:03:47;100748.88;;;15.37;100.00
69306;BME280;56427;51.580;4.656;2023-08-06T08:06:13;100746.88;;;15.23;100.00
69306;BME280;56427;51.580;4.656;2023-08-06T08:08:38;100751.31;;;15.31;100.00
69306;BME280;56427;51.580;4.656;2023-08-06T08:11:04;100743.16;;;15.25;100.00
69306;BME280;56427;51.580;4.656;2023-08-06T08:13:30;100744.50;;;15.38;100.00
69306;BME280;56427;51.580;4.656;2023-08-06T08:15:57;100742.38;;;15.50;100.00
69306;BME280;56427;51.580;4.656;2023-08-06T08:18:24;100743.16;;;15.42;100.00
69306;BME280;56427;51.580;4.656;2023-08-06T08:20:49;100747.78;;;15.64;100.00
69306;BME280;56427;51.580;4.656;2023-08-06T08:23:14;100747.44;;;15.51;100.00
69306;BME280;56427;51.580;4.656;2023-08-06T08:25:40;100751.69;;;15.69;100.00
69306;BME280;56427;51.580;4.656;2023-08-06T08:28:07;100752.84;;;15.58;100.00
69306;BME280;56427;51.580;4.656;2023-08-06T08:30:32;100759.69;;;15.59;100.00
69306;BME280;56427;51.580;4.656;2023-08-06T08:32:57;100744.00;;;15.51;100.00
69306;BME280;56427;51.580;4.656;2023-08-06T08:35:23;100747.63;;;15.58;100.00
69306;BME280;56427;51.580;4.656;2023-08-06T08:37:49;100755.78;;;15.63;100.00
69306;BME280;56427;51.580;4.656;2023-08-06T08:40:15;100753.97;;;15.63;100.00
69306;BME280;56427;51.580;4.656;2023-08-06T08:42:42;100758.88;;;15.50;100.00
69306;BME280;56427;51.580;4.656;2023-08-06T08:45:14;100753.66;;;15.67;100.00
69306;BME280;56427;51.580;4.656;2023-08-06T08:47:41;100750.75;;;15.78;100.00
69306;BME280;56427;51.580;4.656;2023-08-06T08:50:09;100762.19;;;15.77;100.00
69306;BME280;56427;51.580;4.656;2023-08-06T08:52:39;100771.69;;;15.86;100.00
69306;BME280;56427;51.580;4.656;2023-08-06T08:55:07;100764.28;;;15.73;100.00
69306;BME280;56427;51.580;4.656;2023-08-06T08:57:32;100761.06;;;15.88;100.00
69306;BME280;56427;51.580;4.656;2023-08-06T08:59:58;100767.09;;;15.88;100.00
69306;BME280;56427;51.580;4.656;2023-08-06T09:02:25;100765.47;;;15.79;100.00
69306;BME280;56427;51.580;4.656;2023-08-06T09:04:56;100764.00;;;15.93;100.00
69306;BME280;56427;51.580;4.656;2023-08-06T09:07:25;100757.09;;;16.00;100.00
69306;BME280;56427;51.580;4.656;2023-08-06T09:09:52;100760.72;;;15.99;100.00
69306;BME280;56427;51.580;4.656;2023-08-06T09:12:19;100763.00;;;16.18;100.00
69306;BME280;56427;51.580;4.656;2023-08-06T09:14:46;100769.38;;;16.08;100.00
69306;BME280;56427;51.580;4.656;2023-08-06T09:17:15;100774.72;;;16.39;100.00
69306;BME280;56427;51.580;4.656;2023-08-06T09:19:44;100772.59;;;16.34;100.00
69306;BME280;56427;51.580;4.656;2023-08-06T09:22:12;100772.84;;;16.64;100.00
69306;BME280;56427;51.580;4.656;2023-08-06T09:24:40;100773.72;;;16.56;100.00
69306;BME280;56427;51.580;4.656;2023-08-06T09:27:10;100774.47;;;16.73;100.00
69306;BME280;56427;51.580;4.656;2023-08-06T09:29:43;100779.88;;;16.72;100.00
69306;BME280;56427;51.580;4.656;2023-08-06T09:32:10;100778.09;;;16.64;100.00
69306;BME280;56427;51.580;4.656;2023-08-06T09:34:39;100784.28;;;16.88;100.00
69306;BME280;56427;51.580;4.656;2023-08-06T09:37:04;100781.25;;;16.60;100.00
69306;BME280;56427;51.580;4.656;2023-08-06T09:39:31;100796.19;;;16.90;100.00
69306;BME280;56427;51.580;4.656;2023-08-06T09:41:58;100789.91;;;17.08;100.00
69306;BME280;56427;51.580;4.656;2023-08-06T09:44:25;100801.91;;;17.34;100.00
69306;BME280;56427;51.580;4.656;2023-08-06T09:46:55;100800.78;;;16.97;100.00
69306;BME280;56427;51.580;4.656;2023-08-06T09:49:26;100801.38;;;17.07;100.00
69306;BME280;56427;51.580;4.656;2023-08-06T09:51:53;100806.66;;;16.99;100.00
69306;BME280;56427;51.580;4.656;2023-08-06T09:54:22;100802.63;;;16.88;100.00
69306;BME280;56427;51.580;4.656;2023-08-06T09:56:50;100799.84;;;16.89;100.00
69306;BME280;56427;51.580;4.656;2023-08-06T09:59:17;100815.25;;;16.76;100.00
69306;BME280;56427;51.580;4.656;2023-08-06T10:01:43;100810.25;;;16.50;100.00
69306;BME280;56427;51.580;4.656;2023-08-06T10:04:08;100816.13;;;16.44;100.00
69306;BME280;56427;51.580;4.656;2023-08-06T10:06:35;100816.75;;;16.62;100.00
69306;BME280;56427;51.580;4.656;2023-08-06T10:09:02;100819.50;;;16.77;100.00
69306;BME280;56427;51.580;4.656;2023-08-06T10:11:28;100809.66;;;16.79;100.00
69306;BME280;56427;51.580;4.656;2023-08-06T10:16:41;100821.81;;;16.64;100.00
69306;BME280;56427;51.580;4.656;2023-08-06T10:19:10;100824.44;;;16.64;100.00
69306;BME280;56427;51.580;4.656;2023-08-06T10:21:38;100829.00;;;16.78;100.00
69306;BME280;56427;51.580;4.656;2023-08-06T10:24:07;100829.00;;;16.78;100.00
69306;BME280;56427;51.580;4.656;2023-08-06T10:26:35;100823.09;;;16.84;100.00
69306;BME280;56427;51.580;4.656;2023-08-06T10:29:01;100827.28;;;17.02;100.00
69306;BME280;56427;51.580;4.656;2023-08-06T10:31:55;100828.47;;;16.99;100.00
69306;BME280;56427;51.580;4.656;2023-08-06T10:34:23;100828.56;;;17.14;100.00
69306;BME280;56427;51.580;4.656;2023-08-06T10:36:49;100832.34;;;17.11;100.00
69306;BME280;56427;51.580;4.656;2023-08-06T10:39:14;100845.19;;;16.90;100.00
69306;BME280;56427;51.580;4.656;2023-08-06T10:41:43;100848.06;;;17.11;100.00
69306;BME280;56427;51.580;4.656;2023-08-06T10:44:10;100850.28;;;16.83;100.00
69306;BME280;56427;51.580;4.656;2023-08-06T10:46:37;100865.44;;;16.40;100.00
69306;BME280;56427;51.580;4.656;2023-08-06T10:49:06;100866.53;;;16.62;100.00
69306;BME280;56427;51.580;4.656;2023-08-06T10:51:32;100867.66;;;16.92;100.00
69306;BME280;56427;51.580;4.656;2023-08-06T10:53:58;100861.63;;;16.59;100.00
69306;BME280;56427;51.580;4.656;2023-08-06T10:56:25;100868.06;;;16.24;100.00
69306;BME280;56427;51.580;4.656;2023-08-06T10:58:54;100869.81;;;16.07;100.00
69306;BME280;56427;51.580;4.656;2023-08-06T11:01:21;100884.72;;;16.06;100.00
69306;BME280;56427;51.580;4.656;2023-08-06T11:03:47;100892.16;;;15.68;100.00
69306;BME280;56427;51.580;4.656;2023-08-06T11:06:22;100894.13;;;15.66;100.00
69306;BME280;56427;51.580;4.656;2023-08-06T11:08:52;100888.22;;;15.72;100.00
69306;BME280;56427;51.580;4.656;2023-08-06T11:11:18;100888.78;;;15.76;100.00
69306;BME280;56427;51.580;4.656;2023-08-06T11:13:48;100879.97;;;15.93;100.00
69306;BME280;56427;51.580;4.656;2023-08-06T11:16:15;100879.50;;;16.14;100.00
69306;BME280;56427;51.580;4.656;2023-08-06T11:18:41;100884.25;;;16.27;100.00
69306;BME280;56427;51.580;4.656;2023-08-06T11:21:08;100878.84;;;16.37;100.00
69306;BME280;56427;51.580;4.656;2023-08-06T11:23:34;100884.09;;;16.37;100.00
69306;BME280;56427;51.580;4.656;2023-08-06T11:26:00;100875.72;;;16.50;100.00
69306;BME280;56427;51.580;4.656;2023-08-06T11:28:27;100876.06;;;16.47;100.00
69306;BME280;56427;51.580;4.656;2023-08-06T11:30:53;100875.69;;;16.74;100.00
69306;BME280;56427;51.580;4.656;2023-08-06T11:33:25;100867.34;;;16.54;100.00
69306;BME280;56427;51.580;4.656;2023-08-06T11:35:51;100880.25;;;16.81;100.00
69306;BME280;56427;51.580;4.656;2023-08-06T11:38:17;100875.31;;;17.10;100.00
69306;BME280;56427;51.580;4.656;2023-08-06T11:40:44;100873.06;;;16.83;100.00
69306;BME280;56427;51.580;4.656;2023-08-06T11:43:11;100877.75;;;17.04;100.00
69306;BME280;56427;51.580;4.656;2023-08-06T11:45:37;100867.66;;;17.32;100.00
69306;BME280;56427;51.580;4.656;2023-08-06T11:48:02;100869.06;;;17.03;100.00
69306;BME280;56427;51.580;4.656;2023-08-06T11:50:28;100869.44;;;16.84;100.00
69306;BME280;56427;51.580;4.656;2023-08-06T11:53:00;100857.97;;;16.93;100.00
69306;BME280;56427;51.580;4.656;2023-08-06T11:55:27;100875.34;;;16.94;100.00
69306;BME280;56427;51.580;4.656;2023-08-06T11:57:54;100875.69;;;16.83;100.00
69306;BME280;56427;51.580;4.656;2023-08-06T12:00:22;100869.94;;;16.87;100.00
69306;BME280;56427;51.580;4.656;2023-08-06T12:02:49;100874.78;;;17.07;100.00
69306;BME280;56427;51.580;4.656;2023-08-06T12:05:28;100863.78;;;17.20;100.00
69306;BME280;56427;51.580;4.656;2023-08-06T12:07:58;100862.28;;;17.25;100.00
69306;BME280;56427;51.580;4.656;2023-08-06T12:10:25;100859.00;;;17.55;100.00
69306;BME280;56427;51.580;4.656;2023-08-06T12:12:51;100874.50;;;17.41;100.00
69306;BME280;56427;51.580;4.656;2023-08-06T12:15:17;100880.75;;;16.84;100.00
69306;BME280;56427;51.580;4.656;2023-08-06T12:17:42;100894.06;;;16.50;100.00
69306;BME280;56427;51.580;4.656;2023-08-06T12:20:09;100903.34;;;16.77;100.00
69306;BME280;56427;51.580;4.656;2023-08-06T12:22:35;100908.75;;;16.84;100.00
69306;BME280;56427;51.580;4.656;2023-08-06T12:25:11;100902.38;;;16.95;100.00
69306;BME280;56427;51.580;4.656;2023-08-06T12:27:39;100911.28;;;17.25;100.00
69306;BME280;56427;51.580;4.656;2023-08-06T12:30:05;100919.78;;;17.35;100.00
69306;BME280;56427;51.580;4.656;2023-08-06T12:32:31;100907.88;;;17.16;100.00
69306;BME280;56427;51.580;4.656;2023-08-06T12:34:57;100916.56;;;17.17;100.00
69306;BME280;56427;51.580;4.656;2023-08-06T12:37:23;100907.91;;;17.08;100.00
69306;BME280;56427;51.580;4.656;2023-08-06T12:39:49;100899.41;;;16.98;100.00
69306;BME280;56427;51.580;4.656;2023-08-06T12:42:14;100917.94;;;16.96;100.00